KARTODROMO INTERNACIONAL GRANJA VIANA KGV RACE TRACKS CIRCUITO - 101
Resultados de RENTAL - PROVA 2 - 11:30


Pos No. Nome Classe Coment├írios Voltas Total Tempo Melhor Tempo na volta. Diff Espa├žo 2a melhor velocidade Media
1 013 CAIO DARDI RENTAL 18 18:29.583 58.173 17 58.188 59,276
2 012 RAFAEL HIGA RENTAL 18 18:42.874 58.102 8 13.291 13.291 58.226 58,575
3 037 RICARDO DA VEIGA CESAR RENTAL 18 18:43.818 58.506 10 14.235 0.944 58.631 58,525
4 053 TIAGO JOSE NICOLAU DOS SANTOS RENTAL 18 18:46.067 58.546 6 16.484 2.249 58.669 58,409
5 003 LEANDRO VIEIRA RENTAL 18 18:46.214 58.591 7 16.631 0.147 58.655 58,401
6 028 PEDRO ARMANDO RENTAL 18 18:49.934 57.770 15 20.351 3.720 57.874 58,209
7 034 MARCELO DE ANDRADE EVANGELISTA RENTAL 18 18:51.299 58.344 15 21.716 1.365 58.487 58,138
8 036 LUCAS DARDI RENTAL 18 18:51.789 58.715 9 22.206 0.490 58.938 58,113
9 027 RAFAEL EVANGELISTA RENTAL 18 18:55.048 58.607 13 25.465 3.259 58.739 57,946
10 042 JOSE NICOLAU LUIZ RENTAL 18 18:55.645 58.892 4 26.062 0.597 59.173 57,916
11 026 DEWANDRE HUGO MACEDO RENTAL 18 18:59.171 59.045 10 29.588 3.526 59.056 57,737
12 031 FERNANDO DE MATTOS LOPES DA SI RENTAL 18 19:01.800 58.801 17 32.217 2.629 59.163 57,604
13 050 RODRIGO VIEIRA RENTAL 18 19:02.410 58.690 17 32.827 0.610 58.767 57,573
14 023 WAGNER BOTELHO PARALTA RENTAL 18 19:05.310 59.075 5 35.727 2.900 59.334 57,427
15 051 HENRIQUE DE OLIVEIRA CASTRO RENTAL 18 19:16.598 58.118 5 47.015 11.288 58.362 56,867
16 015 ANGELO LOURENZON RENTAL 18 19:17.321 1:00.049 16 47.738 0.723 1:00.089 56,831
17 004 REINALDO QUEIROZ RENTAL 18 19:19.222 59.919 8 49.639 1.901 1:00.000 56,738
18 030 LUIZ ANTONIO DE OLIVEIRA CASTR RENTAL 17 19:15.938 1:03.068 4 1 Volta 1 Volta 1:03.177 53,738
19 021 MATHEUS AUGUSTO RENTAL 16 18:58.826 1:02.040 13 2 Voltas 1 Volta 1:03.307 51,337
20 005 CRISTIAN PETICOV RENTAL 16 18:58.840 1:01.977 13 2 Voltas 0.014 1:03.382 51,336
21 018 RAFAEL RODRIGO DA SILVA RENTAL 16 19:03.696 1:00.702 2 2 Voltas 4.856 1:01.183 51,118
22 020 BRUNO ALEXANDRE POSKUS RENTAL 14 19:18.078 59.812 7 4 Voltas 2 Voltas 59.817 44,173
Gerada em 07/09/2020 12:32